createdAt,value
2019-06-19T00:00:52.481Z,980.63
2019-06-19T00:01:52.471Z,980.64
2019-06-19T00:02:53.284Z,980.68
2019-06-19T00:03:53.198Z,980.64
2019-06-19T00:04:52.693Z,980.58
2019-06-19T00:05:52.999Z,980.64
2019-06-19T00:06:52.429Z,980.66
2019-06-19T00:07:53.729Z,980.60
2019-06-19T00:08:52.384Z,980.62
2019-06-19T00:09:53.089Z,980.61
2019-06-19T00:10:52.939Z,980.56
2019-06-19T00:11:52.933Z,980.57
2019-06-19T00:12:53.066Z,980.57
2019-06-19T00:13:52.937Z,980.50
2019-06-19T00:14:52.693Z,980.47
2019-06-19T00:15:52.612Z,980.52
2019-06-19T00:16:53.378Z,980.50
2019-06-19T00:17:53.649Z,980.50
2019-06-19T00:18:53.186Z,980.51
2019-06-19T00:19:53.476Z,980.46
2019-06-19T00:20:52.267Z,980.47
2019-06-19T00:21:52.810Z,980.47
2019-06-19T00:22:53.071Z,980.45
2019-06-19T00:23:52.966Z,980.47
2019-06-19T00:24:53.142Z,980.43
2019-06-19T00:25:52.652Z,980.44
2019-06-19T00:26:50.832Z,980.47
2019-06-19T00:27:50.781Z,980.42
2019-06-19T00:28:51.092Z,980.41
2019-06-19T00:29:51.409Z,980.42
2019-06-19T00:30:52.918Z,980.39
2019-06-19T00:31:51.243Z,980.39
2019-06-19T00:32:51.368Z,980.38
2019-06-19T00:33:51.735Z,980.41
2019-06-19T00:34:50.966Z,980.42
2019-06-19T00:35:51.744Z,980.37
2019-06-19T00:36:50.976Z,980.39
2019-06-19T00:37:50.887Z,980.36
2019-06-19T00:38:51.083Z,980.31
2019-06-19T00:39:51.410Z,980.32
2019-06-19T00:40:51.942Z,980.35
2019-06-19T00:41:51.096Z,980.34
2019-06-19T00:42:51.571Z,980.32
2019-06-19T00:43:51.088Z,980.32
2019-06-19T00:44:51.435Z,980.30
2019-06-19T00:45:51.334Z,980.33
2019-06-19T00:46:51.519Z,980.28
2019-06-19T00:47:51.368Z,980.27
2019-06-19T00:48:51.835Z,980.28
2019-06-19T00:49:51.601Z,980.29
2019-06-19T00:50:51.272Z,980.30
2019-06-19T00:51:52.142Z,980.28
2019-06-19T00:52:51.368Z,980.30
2019-06-19T00:53:51.162Z,980.25
2019-06-19T00:54:50.732Z,980.24
2019-06-19T00:55:51.025Z,980.24
2019-06-19T00:56:50.963Z,980.25
2019-06-19T00:57:51.520Z,980.24
2019-06-19T00:58:51.181Z,980.24
2019-06-19T00:59:57.971Z,980.23
2019-06-19T01:00:51.749Z,980.22
2019-06-19T01:01:50.824Z,980.25
2019-06-19T01:02:51.332Z,980.25
2019-06-19T01:03:51.450Z,980.26
2019-06-19T01:04:51.799Z,980.24
2019-06-19T01:05:51.764Z,980.25
2019-06-19T01:06:51.149Z,980.25
2019-06-19T01:07:51.325Z,980.30
2019-06-19T01:08:49.398Z,980.25
2019-06-19T01:09:50.991Z,980.25
2019-06-19T01:10:50.984Z,980.28
2019-06-19T01:11:51.472Z,980.25
2019-06-19T01:12:50.790Z,980.22
2019-06-19T01:13:51.646Z,980.20
2019-06-19T01:14:51.303Z,980.24
2019-06-19T01:15:50.811Z,980.22
2019-06-19T01:16:51.033Z,980.21
2019-06-19T01:17:50.839Z,980.23
2019-06-19T01:18:51.280Z,980.20
2019-06-19T01:19:50.845Z,980.18
2019-06-19T01:20:51.061Z,980.17
2019-06-19T01:21:51.342Z,980.18
2019-06-19T01:22:51.525Z,980.18
2019-06-19T01:23:51.296Z,980.16
2019-06-19T01:24:51.057Z,980.19
2019-06-19T01:25:48.832Z,980.21
2019-06-19T01:26:51.064Z,980.19
2019-06-19T01:27:50.971Z,980.17
2019-06-19T01:28:51.001Z,980.19
2019-06-19T01:29:50.631Z,980.18
2019-06-19T01:30:50.909Z,980.14
2019-06-19T01:31:50.650Z,980.11
2019-06-19T01:32:51.183Z,980.10
2019-06-19T01:33:50.618Z,980.12
2019-06-19T01:34:50.798Z,980.10
2019-06-19T01:35:50.830Z,980.09
2019-06-19T01:36:50.727Z,980.11
2019-06-19T01:37:51.290Z,980.06
2019-06-19T01:38:48.380Z,980.05
2019-06-19T01:39:50.981Z,980.07
2019-06-19T01:40:51.118Z,980.08
2019-06-19T01:41:48.287Z,980.07
2019-06-19T01:42:48.253Z,980.02
2019-06-19T01:43:48.224Z,980.06
2019-06-19T01:44:48.181Z,980.08
2019-06-19T01:45:48.160Z,980.03
2019-06-19T01:46:48.121Z,980.03
2019-06-19T01:47:48.078Z,980.05
2019-06-19T01:48:48.050Z,980.03
2019-06-19T01:49:48.012Z,980.04
2019-06-19T01:50:50.459Z,980.02
2019-06-19T01:51:47.962Z,980.00
2019-06-19T01:52:47.953Z,980.02
2019-06-19T01:53:47.910Z,980.02
2019-06-19T01:54:47.879Z,979.99
2019-06-19T01:55:47.816Z,980.00
2019-06-19T01:56:47.813Z,979.99
2019-06-19T01:57:47.799Z,979.99
2019-06-19T01:58:47.752Z,980.02
2019-06-19T01:59:47.705Z,979.97
2019-06-19T02:00:47.670Z,979.99
2019-06-19T02:01:47.634Z,979.99
2019-06-19T02:02:47.618Z,979.99
2019-06-19T02:03:47.556Z,979.99
2019-06-19T02:04:47.551Z,980.00
2019-06-19T02:05:47.512Z,979.98
2019-06-19T02:06:47.478Z,979.98
2019-06-19T02:07:47.423Z,979.98
2019-06-19T02:08:47.408Z,979.94
2019-06-19T02:09:47.337Z,979.93
2019-06-19T02:10:47.300Z,979.91
2019-06-19T02:11:47.270Z,979.92
2019-06-19T02:12:47.241Z,979.92
2019-06-19T02:13:51.245Z,979.91
2019-06-19T02:14:47.184Z,979.92
2019-06-19T02:15:47.138Z,979.89
2019-06-19T02:16:47.130Z,979.92
2019-06-19T02:17:47.071Z,979.92
2019-06-19T02:18:47.040Z,979.93
2019-06-19T02:19:47.010Z,979.91
2019-06-19T02:20:46.965Z,979.94
2019-06-19T02:21:46.934Z,979.93
2019-06-19T02:22:46.899Z,979.89
2019-06-19T02:23:46.865Z,979.85
2019-06-19T02:24:46.838Z,979.89
2019-06-19T02:25:46.809Z,979.86
2019-06-19T02:26:46.763Z,979.88
2019-06-19T02:27:46.755Z,979.87
2019-06-19T02:28:46.719Z,979.87
2019-06-19T02:29:46.689Z,979.85
2019-06-19T02:31:04.293Z,979.85
2019-06-19T02:31:46.615Z,979.86
2019-06-19T02:32:46.583Z,979.83
2019-06-19T02:33:46.565Z,979.87
2019-06-19T02:34:46.542Z,979.88
2019-06-19T02:35:46.467Z,979.87
2019-06-19T02:36:46.438Z,979.83
2019-06-19T02:37:46.416Z,979.89
2019-06-19T02:38:46.401Z,979.90
2019-06-19T02:39:46.351Z,979.87
2019-06-19T02:40:46.318Z,979.87
2019-06-19T02:41:46.277Z,979.92
2019-06-19T02:42:46.279Z,979.89
2019-06-19T02:43:46.200Z,979.88
2019-06-19T02:44:48.678Z,979.87
2019-06-19T02:45:46.125Z,979.87
2019-06-19T02:46:46.091Z,979.84
2019-06-19T02:47:46.059Z,979.83
2019-06-19T02:48:46.020Z,979.83
2019-06-19T02:49:45.986Z,979.79
2019-06-19T02:50:45.959Z,979.80
2019-06-19T02:51:45.926Z,979.86
2019-06-19T02:52:45.894Z,979.79
2019-06-19T02:53:45.860Z,979.83
2019-06-19T02:54:45.816Z,979.80
2019-06-19T02:55:45.785Z,979.88
2019-06-19T02:56:45.759Z,979.81
2019-06-19T02:57:45.720Z,979.80
2019-06-19T02:58:45.720Z,979.81
2019-06-19T02:59:45.653Z,979.81
2019-06-19T03:00:45.625Z,979.81
2019-06-19T03:01:45.609Z,979.82
2019-06-19T03:02:45.578Z,979.83
2019-06-19T03:03:45.543Z,979.83
2019-06-19T03:04:45.500Z,979.84
2019-06-19T03:05:45.498Z,979.84
2019-06-19T03:06:45.441Z,979.91
2019-06-19T03:07:45.430Z,979.89
2019-06-19T03:08:45.369Z,979.91
2019-06-19T03:09:45.313Z,979.95
2019-06-19T03:10:45.327Z,979.94
2019-06-19T03:11:45.280Z,979.94
2019-06-19T03:12:45.232Z,979.95
2019-06-19T03:13:45.189Z,979.93
2019-06-19T03:14:45.214Z,979.92
2019-06-19T03:15:45.125Z,979.92
2019-06-19T03:16:45.082Z,979.90
2019-06-19T03:17:45.055Z,979.91
2019-06-19T03:18:45.024Z,979.91
2019-06-19T03:19:44.982Z,979.91
2019-06-19T03:20:44.951Z,979.93
2019-06-19T03:21:44.914Z,979.94
2019-06-19T03:22:44.886Z,979.92
2019-06-19T03:23:44.845Z,979.94
2019-06-19T03:24:44.818Z,979.98
2019-06-19T03:25:44.805Z,979.99
2019-06-19T03:26:44.750Z,979.93
2019-06-19T03:27:44.717Z,979.89
2019-06-19T03:28:44.705Z,979.87
2019-06-19T03:29:44.701Z,979.89
2019-06-19T03:30:44.627Z,979.84
2019-06-19T03:31:44.621Z,979.83
2019-06-19T03:32:44.571Z,979.87
2019-06-19T03:33:44.550Z,979.81
2019-06-19T03:34:44.472Z,979.84
2019-06-19T03:35:44.473Z,979.82
2019-06-19T03:36:44.426Z,979.83
2019-06-19T03:37:44.380Z,979.84
2019-06-19T03:38:44.376Z,979.87
2019-06-19T03:39:44.336Z,979.85
2019-06-19T03:40:44.326Z,979.86
2019-06-19T03:41:44.412Z,979.87
2019-06-19T03:42:44.281Z,979.84
2019-06-19T03:43:44.217Z,979.86
2019-06-19T03:44:44.147Z,979.82
2019-06-19T03:45:44.151Z,979.84
2019-06-19T03:46:44.105Z,979.84
2019-06-19T03:47:44.066Z,979.81
2019-06-19T03:48:44.030Z,979.82
2019-06-19T03:49:43.990Z,979.83
2019-06-19T03:50:43.958Z,979.87
2019-06-19T03:51:43.946Z,979.84
2019-06-19T03:52:43.922Z,979.84
2019-06-19T03:53:43.846Z,979.83
2019-06-19T03:54:43.797Z,979.83
2019-06-19T03:55:43.774Z,979.78
2019-06-19T03:56:43.725Z,979.79
2019-06-19T03:57:43.759Z,979.77
2019-06-19T03:58:43.691Z,979.78
2019-06-19T03:59:43.659Z,979.79
2019-06-19T04:00:43.625Z,979.75
2019-06-19T04:01:49.362Z,979.80
2019-06-19T04:02:43.574Z,979.76
2019-06-19T04:03:43.533Z,979.72
2019-06-19T04:04:43.474Z,979.72
2019-06-19T04:05:43.426Z,979.70
2019-06-19T04:06:43.415Z,979.68
2019-06-19T04:07:43.385Z,979.68
2019-06-19T04:08:43.365Z,979.69
2019-06-19T04:09:43.309Z,979.71
2019-06-19T04:10:43.295Z,979.67
2019-06-19T04:11:43.283Z,979.68
2019-06-19T04:12:43.212Z,979.69
2019-06-19T04:13:43.196Z,979.66
2019-06-19T04:14:43.195Z,979.66
2019-06-19T04:15:43.106Z,979.65
2019-06-19T04:16:43.078Z,979.66
2019-06-19T04:17:43.051Z,979.64
2019-06-19T04:18:42.995Z,979.66
2019-06-19T04:19:42.975Z,979.65
2019-06-19T04:20:42.944Z,979.67
2019-06-19T04:21:42.946Z,979.62
2019-06-19T04:22:42.904Z,979.66
2019-06-19T04:23:42.841Z,979.66
2019-06-19T04:24:42.798Z,979.64
2019-06-19T04:25:42.774Z,979.64
2019-06-19T04:26:42.730Z,979.59
2019-06-19T04:27:42.719Z,979.63
2019-06-19T04:28:42.691Z,979.62
2019-06-19T04:29:42.682Z,979.63
2019-06-19T04:30:42.656Z,979.65
2019-06-19T04:31:42.582Z,979.66
2019-06-19T04:32:42.573Z,979.67
2019-06-19T04:33:42.529Z,979.68
2019-06-19T04:34:42.528Z,979.69
2019-06-19T04:35:42.507Z,979.66
2019-06-19T04:36:42.443Z,979.67
2019-06-19T04:37:42.428Z,979.68
2019-06-19T04:38:42.392Z,979.69
2019-06-19T04:39:42.334Z,979.68
2019-06-19T04:40:42.280Z,979.66
2019-06-19T04:41:42.257Z,979.67
2019-06-19T04:42:42.248Z,979.67
2019-06-19T04:43:42.207Z,979.64
2019-06-19T04:44:42.151Z,979.61
2019-06-19T04:45:42.117Z,979.63
2019-06-19T04:46:42.120Z,979.63
2019-06-19T04:47:42.049Z,979.64
2019-06-19T04:48:42.033Z,979.63
2019-06-19T04:49:41.998Z,979.65
2019-06-19T04:50:41.968Z,979.67
2019-06-19T04:51:41.937Z,979.66
2019-06-19T04:52:44.726Z,979.68
2019-06-19T04:53:41.877Z,979.67
2019-06-19T04:54:41.839Z,979.68
2019-06-19T04:55:41.811Z,979.71
2019-06-19T04:56:41.798Z,979.69
2019-06-19T04:57:41.753Z,979.71
2019-06-19T04:58:41.732Z,979.71
2019-06-19T04:59:41.690Z,979.70
2019-06-19T05:00:41.708Z,979.70
2019-06-19T05:01:41.665Z,979.68
2019-06-19T05:02:41.599Z,979.72
2019-06-19T05:03:41.613Z,979.72
2019-06-19T05:04:41.541Z,979.70
2019-06-19T05:05:41.545Z,979.70
2019-06-19T05:06:41.502Z,979.68
2019-06-19T05:07:41.457Z,979.65
2019-06-19T05:08:41.455Z,979.68
2019-06-19T05:09:41.430Z,979.64
2019-06-19T05:10:41.357Z,979.70
2019-06-19T05:11:41.336Z,979.65
2019-06-19T05:12:41.311Z,979.68
2019-06-19T05:13:41.278Z,979.69
2019-06-19T05:14:41.243Z,979.72
2019-06-19T05:15:41.218Z,979.71
2019-06-19T05:16:41.199Z,979.68
2019-06-19T05:17:41.156Z,979.67
2019-06-19T05:18:41.131Z,979.73
2019-06-19T05:19:41.106Z,979.74
2019-06-19T05:20:41.075Z,979.76
2019-06-19T05:21:41.051Z,979.78
2019-06-19T05:22:41.018Z,979.76
2019-06-19T05:23:40.994Z,979.79
2019-06-19T05:24:40.964Z,979.78
2019-06-19T05:25:40.937Z,979.81
2019-06-19T05:26:40.928Z,979.75
2019-06-19T05:27:40.915Z,979.73
2019-06-19T05:28:40.896Z,979.72
2019-06-19T05:29:40.857Z,979.72
2019-06-19T05:30:40.803Z,979.75
2019-06-19T05:31:40.785Z,979.73
2019-06-19T05:32:40.754Z,979.75
2019-06-19T05:33:40.743Z,979.72
2019-06-19T05:34:40.706Z,979.73
2019-06-19T05:35:40.674Z,979.71
2019-06-19T05:36:40.664Z,979.71
2019-06-19T05:37:40.628Z,979.70
2019-06-19T05:38:40.602Z,979.71
2019-06-19T05:39:40.569Z,979.66
2019-06-19T05:40:40.543Z,979.70
2019-06-19T05:41:40.507Z,979.70
2019-06-19T05:42:40.478Z,979.69
2019-06-19T05:43:40.461Z,979.72
2019-06-19T05:44:40.446Z,979.72
2019-06-19T05:45:40.403Z,979.74
2019-06-19T05:46:40.370Z,979.72
2019-06-19T05:47:40.370Z,979.75
2019-06-19T05:48:40.331Z,979.74
2019-06-19T05:49:40.293Z,979.78
2019-06-19T05:50:40.274Z,979.74
2019-06-19T05:51:40.257Z,979.78
2019-06-19T05:52:40.231Z,979.71
2019-06-19T05:53:40.219Z,979.67
2019-06-19T05:54:40.177Z,979.69
2019-06-19T05:55:40.153Z,979.64
2019-06-19T05:56:40.124Z,979.64
2019-06-19T05:57:40.162Z,979.66
2019-06-19T05:58:40.086Z,979.64
2019-06-19T05:59:40.072Z,979.61
2019-06-19T06:00:40.060Z,979.63
2019-06-19T06:01:40.104Z,979.58
2019-06-19T06:02:51.539Z,979.58
2019-06-19T06:03:39.955Z,979.57
2019-06-19T06:04:39.938Z,979.56
2019-06-19T06:05:39.915Z,979.60
2019-06-19T06:06:39.892Z,979.55
2019-06-19T06:07:39.883Z,979.56
2019-06-19T06:08:39.809Z,979.52
2019-06-19T06:09:39.781Z,979.55
2019-06-19T06:10:39.780Z,979.57
2019-06-19T06:11:39.731Z,979.59
2019-06-19T06:12:39.728Z,979.55
2019-06-19T06:13:39.673Z,979.55
2019-06-19T06:14:39.671Z,979.54
2019-06-19T06:15:39.666Z,979.55
2019-06-19T06:16:39.680Z,979.52
2019-06-19T06:17:39.612Z,979.54
2019-06-19T06:18:39.563Z,979.55
2019-06-19T06:19:39.524Z,979.53
2019-06-19T06:20:39.493Z,979.50
2019-06-19T06:21:39.478Z,979.50
2019-06-19T06:22:39.472Z,979.50
2019-06-19T06:23:39.438Z,979.54
2019-06-19T06:24:39.394Z,979.54
2019-06-19T06:25:39.399Z,979.54
2019-06-19T06:26:39.344Z,979.55
2019-06-19T06:27:39.315Z,979.52
2019-06-19T06:28:39.304Z,979.53
2019-06-19T06:29:39.281Z,979.58
2019-06-19T06:30:39.275Z,979.53
2019-06-19T06:31:39.240Z,979.57
2019-06-19T06:32:39.201Z,979.56
2019-06-19T06:33:39.183Z,979.56
2019-06-19T06:34:39.176Z,979.55
2019-06-19T06:35:39.126Z,979.52
2019-06-19T06:36:39.099Z,979.48
2019-06-19T06:37:39.115Z,979.52
2019-06-19T06:38:39.070Z,979.52
2019-06-19T06:39:39.027Z,979.51
2019-06-19T06:40:47.863Z,979.52
2019-06-19T06:41:38.982Z,979.50
2019-06-19T06:42:38.968Z,979.51
2019-06-19T06:43:38.919Z,979.52
2019-06-19T06:44:38.885Z,979.44
2019-06-19T06:45:38.863Z,979.45
2019-06-19T06:46:38.837Z,979.49
2019-06-19T06:47:38.818Z,979.48
2019-06-19T06:48:38.797Z,979.53
2019-06-19T06:49:38.764Z,979.49
2019-06-19T06:50:38.736Z,979.51
2019-06-19T06:51:38.718Z,979.50
2019-06-19T06:52:38.684Z,979.45
2019-06-19T06:53:38.668Z,979.47
2019-06-19T06:54:38.659Z,979.45
2019-06-19T06:55:38.624Z,979.47
2019-06-19T06:56:38.644Z,979.46
2019-06-19T06:57:38.594Z,979.46
2019-06-19T06:58:38.571Z,979.47
2019-06-19T06:59:38.578Z,979.42
2019-06-19T07:00:38.528Z,979.41
2019-06-19T07:01:38.485Z,979.38
2019-06-19T07:02:38.448Z,979.44
2019-06-19T07:03:38.460Z,979.44
2019-06-19T07:04:38.410Z,979.38
2019-06-19T07:05:38.404Z,979.34
2019-06-19T07:06:38.389Z,979.36
2019-06-19T07:07:38.365Z,979.34
2019-06-19T07:08:38.309Z,979.35
2019-06-19T07:09:38.325Z,979.32
2019-06-19T07:10:38.288Z,979.27
2019-06-19T07:11:38.256Z,979.32
2019-06-19T07:12:38.208Z,979.33
2019-06-19T07:13:38.191Z,979.34
2019-06-19T07:14:38.167Z,979.31
2019-06-19T07:15:38.143Z,979.32
2019-06-19T07:16:38.126Z,979.31
2019-06-19T07:17:38.101Z,979.32
2019-06-19T07:18:38.097Z,979.31
2019-06-19T07:19:38.067Z,979.33
2019-06-19T07:20:38.031Z,979.30
2019-06-19T07:21:38.033Z,979.29
2019-06-19T07:22:38.023Z,979.28
2019-06-19T07:23:37.994Z,979.31
2019-06-19T07:24:37.950Z,979.30
2019-06-19T07:25:37.969Z,979.26
2019-06-19T07:26:52.190Z,979.26
2019-06-19T07:27:37.903Z,979.29
2019-06-19T07:28:37.887Z,979.26
2019-06-19T07:29:37.897Z,979.22
2019-06-19T07:30:37.888Z,979.24
2019-06-19T07:31:37.879Z,979.20
2019-06-19T07:32:37.809Z,979.20
2019-06-19T07:33:41.724Z,979.18
2019-06-19T07:34:37.768Z,979.18
2019-06-19T07:35:37.748Z,979.17
2019-06-19T07:36:37.746Z,979.13
2019-06-19T07:37:37.706Z,979.15
2019-06-19T07:38:37.743Z,979.13
2019-06-19T07:39:37.695Z,979.13
2019-06-19T07:40:37.674Z,979.11
2019-06-19T07:41:37.630Z,979.08
2019-06-19T07:42:37.617Z,979.11
2019-06-19T07:43:39.329Z,979.12
2019-06-19T07:44:37.615Z,979.08
2019-06-19T07:45:37.562Z,979.08
2019-06-19T07:46:37.521Z,979.05
2019-06-19T07:47:37.502Z,979.08
2019-06-19T07:48:37.494Z,979.10
2019-06-19T07:49:37.487Z,979.03
2019-06-19T07:50:37.449Z,979.04
2019-06-19T07:51:37.434Z,979.07
2019-06-19T07:52:37.399Z,979.07
2019-06-19T07:53:37.390Z,979.02
2019-06-19T07:54:37.418Z,979.05
2019-06-19T07:55:37.372Z,979.00
2019-06-19T07:56:37.339Z,979.01
2019-06-19T07:57:37.365Z,979.02
2019-06-19T07:58:37.290Z,979.02
2019-06-19T07:59:37.310Z,978.95
2019-06-19T08:00:37.305Z,978.94
2019-06-19T08:01:37.269Z,978.95
2019-06-19T08:02:37.241Z,978.94
2019-06-19T08:03:37.261Z,978.92
2019-06-19T08:04:37.247Z,978.96
2019-06-19T08:05:37.284Z,978.93
2019-06-19T08:06:37.166Z,978.97
2019-06-19T08:07:37.179Z,978.94
2019-06-19T08:08:37.153Z,978.97
2019-06-19T08:09:37.096Z,978.92
2019-06-19T08:10:37.115Z,978.94
2019-06-19T08:11:37.113Z,978.94
2019-06-19T08:12:37.091Z,978.91
2019-06-19T08:13:37.089Z,978.94
2019-06-19T08:14:37.029Z,978.91
2019-06-19T08:15:37.003Z,978.92
2019-06-19T08:16:36.972Z,978.86
2019-06-19T08:17:36.970Z,978.93
2019-06-19T08:18:36.943Z,978.92
2019-06-19T08:19:36.927Z,978.86
2019-06-19T08:20:36.917Z,978.88
2019-06-19T08:21:37.119Z,978.91
2019-06-19T08:22:36.874Z,978.91
2019-06-19T08:23:36.858Z,978.90
2019-06-19T08:24:36.842Z,978.87
2019-06-19T08:25:36.824Z,978.89
2019-06-19T08:26:36.812Z,978.90
2019-06-19T08:27:36.793Z,978.89
2019-06-19T08:28:36.771Z,978.93
2019-06-19T08:29:36.764Z,978.91
2019-06-19T08:30:36.756Z,978.89
2019-06-19T08:31:36.735Z,978.92
2019-06-19T08:32:36.721Z,978.92
2019-06-19T08:33:36.765Z,978.91
2019-06-19T08:34:48.832Z,978.93
2019-06-19T08:35:36.670Z,978.90
2019-06-19T08:36:36.646Z,978.87
2019-06-19T08:37:36.671Z,978.82
2019-06-19T08:38:36.630Z,978.84
2019-06-19T08:39:36.615Z,978.84
2019-06-19T08:40:36.586Z,978.87
2019-06-19T08:41:36.580Z,978.85
2019-06-19T08:42:36.560Z,978.85
2019-06-19T08:43:36.565Z,978.86
2019-06-19T08:44:36.509Z,978.87
2019-06-19T08:45:36.523Z,978.82
2019-06-19T08:46:36.506Z,978.83
2019-06-19T08:47:36.474Z,978.82
2019-06-19T08:48:36.470Z,978.85
2019-06-19T08:49:36.442Z,978.81
2019-06-19T08:50:36.411Z,978.78
2019-06-19T08:51:36.419Z,978.79
2019-06-19T08:52:36.395Z,978.75
2019-06-19T08:53:36.363Z,978.81
2019-06-19T08:54:36.366Z,978.79
2019-06-19T08:55:36.362Z,978.77
2019-06-19T08:56:36.323Z,978.70
2019-06-19T08:57:36.313Z,978.74
2019-06-19T08:58:36.279Z,978.70
2019-06-19T08:59:36.280Z,978.74
2019-06-19T09:00:36.265Z,978.73
2019-06-19T09:01:36.267Z,978.72
2019-06-19T09:02:36.237Z,978.72
2019-06-19T09:03:36.199Z,978.76
2019-06-19T09:04:36.181Z,978.76
2019-06-19T09:05:36.169Z,978.80
2019-06-19T09:06:36.190Z,978.76
2019-06-19T09:07:36.167Z,978.78
2019-06-19T09:08:36.127Z,978.75
2019-06-19T09:09:36.140Z,978.73
2019-06-19T09:10:36.127Z,978.74
2019-06-19T09:11:36.078Z,978.72
2019-06-19T09:12:36.095Z,978.70
2019-06-19T09:13:36.090Z,978.70
2019-06-19T09:14:36.056Z,978.74
2019-06-19T09:15:36.048Z,978.69
2019-06-19T09:16:35.985Z,978.76
2019-06-19T09:17:36.004Z,978.73
2019-06-19T09:18:35.974Z,978.76
2019-06-19T09:19:35.985Z,978.75
2019-06-19T09:20:35.955Z,978.74
2019-06-19T09:21:35.945Z,978.70
2019-06-19T09:22:35.905Z,978.67
2019-06-19T09:23:35.881Z,978.72
2019-06-19T09:24:35.859Z,978.67
2019-06-19T09:25:35.846Z,978.67
2019-06-19T09:26:35.828Z,978.64
2019-06-19T09:27:35.816Z,978.57
2019-06-19T09:28:35.806Z,978.59
2019-06-19T09:29:35.774Z,978.65
2019-06-19T09:30:35.765Z,978.66
2019-06-19T09:31:35.753Z,978.62
2019-06-19T09:32:35.740Z,978.61
2019-06-19T09:33:35.721Z,978.52
2019-06-19T09:34:49.504Z,978.55
2019-06-19T09:35:35.686Z,978.56
2019-06-19T09:36:35.664Z,978.64
2019-06-19T09:37:35.658Z,978.58
2019-06-19T09:38:35.644Z,978.59
2019-06-19T09:39:35.622Z,978.60
2019-06-19T09:40:35.624Z,978.64
2019-06-19T09:41:35.623Z,978.64
2019-06-19T09:42:35.603Z,978.64
2019-06-19T09:43:35.555Z,978.61
2019-06-19T09:44:36.406Z,978.59
2019-06-19T09:45:35.547Z,978.58
2019-06-19T09:46:35.550Z,978.61
2019-06-19T09:47:35.505Z,978.62
2019-06-19T09:48:35.488Z,978.62
2019-06-19T09:49:35.487Z,978.60
2019-06-19T09:50:35.507Z,978.57
2019-06-19T09:51:35.455Z,978.54
2019-06-19T09:52:35.432Z,978.58
2019-06-19T09:53:35.403Z,978.51
2019-06-19T09:54:35.381Z,978.56
2019-06-19T09:55:35.361Z,978.59
2019-06-19T09:56:35.341Z,978.52
2019-06-19T09:57:35.320Z,978.51
2019-06-19T09:58:35.297Z,978.52
2019-06-19T09:59:35.288Z,978.49
2019-06-19T10:00:35.273Z,978.50
2019-06-19T10:01:35.252Z,978.47
2019-06-19T10:02:35.237Z,978.49
2019-06-19T10:03:35.230Z,978.47
2019-06-19T10:04:35.296Z,978.47
2019-06-19T10:05:35.188Z,978.46
2019-06-19T10:06:35.200Z,978.45
2019-06-19T10:07:35.148Z,978.46
2019-06-19T10:08:35.139Z,978.53
2019-06-19T10:09:35.125Z,978.49
2019-06-19T10:10:35.138Z,978.50
2019-06-19T10:11:35.126Z,978.51
2019-06-19T10:12:35.086Z,978.50
2019-06-19T10:13:35.054Z,978.47
2019-06-19T10:14:35.052Z,978.46
2019-06-19T10:15:35.089Z,978.50
2019-06-19T10:16:35.018Z,978.45
2019-06-19T10:17:35.006Z,978.44
2019-06-19T10:18:34.949Z,978.47
2019-06-19T10:19:34.967Z,978.49
2019-06-19T10:20:34.971Z,978.47
2019-06-19T10:21:34.950Z,978.50
2019-06-19T10:22:34.898Z,978.44
2019-06-19T10:23:38.013Z,978.39
2019-06-19T10:24:34.901Z,978.41
2019-06-19T10:25:34.848Z,978.42
2019-06-19T10:26:35.157Z,978.40
2019-06-19T10:27:34.819Z,978.37
2019-06-19T10:28:34.808Z,978.32
2019-06-19T10:29:34.805Z,978.31
2019-06-19T10:30:34.754Z,978.34
2019-06-19T10:31:34.735Z,978.34
2019-06-19T10:32:34.717Z,978.34
2019-06-19T10:33:34.702Z,978.33
2019-06-19T10:34:34.730Z,978.37
2019-06-19T10:35:34.681Z,978.38
2019-06-19T10:36:34.653Z,978.39
2019-06-19T10:37:34.635Z,978.36
2019-06-19T10:38:34.607Z,978.37
2019-06-19T10:39:34.589Z,978.33
2019-06-19T10:40:34.597Z,978.31
2019-06-19T10:41:34.573Z,978.32
2019-06-19T10:42:34.564Z,978.31
2019-06-19T10:43:34.538Z,978.26
2019-06-19T10:44:34.509Z,978.31
2019-06-19T10:45:34.502Z,978.30
2019-06-19T10:46:41.287Z,978.34
2019-06-19T10:47:34.513Z,978.37
2019-06-19T10:48:34.455Z,978.36
2019-06-19T10:49:34.435Z,978.32
2019-06-19T10:50:34.436Z,978.28
2019-06-19T10:51:34.395Z,978.30
2019-06-19T10:52:34.375Z,978.27
2019-06-19T10:53:34.389Z,978.30
2019-06-19T10:54:34.347Z,978.26
2019-06-19T10:55:34.323Z,978.31
2019-06-19T10:56:34.296Z,978.33
2019-06-19T10:57:34.283Z,978.27
2019-06-19T10:58:34.272Z,978.31
2019-06-19T10:59:34.253Z,978.28
2019-06-19T11:00:34.241Z,978.20
2019-06-19T11:01:34.209Z,978.22
2019-06-19T11:02:34.202Z,978.32
2019-06-19T11:03:34.178Z,978.36
2019-06-19T11:04:34.161Z,978.31
2019-06-19T11:05:39.715Z,978.27
2019-06-19T11:06:34.123Z,978.29
2019-06-19T11:07:34.122Z,978.26
2019-06-19T11:08:34.170Z,978.25
2019-06-19T11:09:34.137Z,978.28
2019-06-19T11:10:34.063Z,978.21
2019-06-19T11:11:34.061Z,978.29
2019-06-19T11:12:34.023Z,978.25
2019-06-19T11:13:34.021Z,978.24
2019-06-19T11:14:34.066Z,978.20
2019-06-19T11:15:33.997Z,978.19
2019-06-19T11:16:33.972Z,978.18
2019-06-19T11:17:33.974Z,978.18
2019-06-19T11:18:33.985Z,978.17
2019-06-19T11:19:33.922Z,978.16
2019-06-19T11:20:33.908Z,978.16
2019-06-19T11:21:33.866Z,978.16
2019-06-19T11:22:33.858Z,978.13
2019-06-19T11:23:33.840Z,978.15
2019-06-19T11:24:33.828Z,978.18
2019-06-19T11:25:33.797Z,978.22
2019-06-19T11:26:33.798Z,978.12
2019-06-19T11:27:33.743Z,978.14
2019-06-19T11:28:33.732Z,978.09
2019-06-19T11:29:33.711Z,978.10
2019-06-19T11:30:33.698Z,978.06
2019-06-19T11:31:33.680Z,978.04
2019-06-19T11:32:33.660Z,978.07
2019-06-19T11:33:33.644Z,978.06
2019-06-19T11:34:33.642Z,978.06
2019-06-19T11:35:33.604Z,978.08
2019-06-19T11:36:33.605Z,978.11
2019-06-19T11:37:33.583Z,978.16
2019-06-19T11:38:33.556Z,978.11
2019-06-19T11:39:33.557Z,978.13
2019-06-19T11:40:36.679Z,978.15
2019-06-19T11:41:33.549Z,978.09
2019-06-19T11:42:33.481Z,978.17
2019-06-19T11:43:33.458Z,978.15
2019-06-19T11:44:33.457Z,978.14
2019-06-19T11:45:33.426Z,978.08
2019-06-19T11:46:33.423Z,978.13
2019-06-19T11:47:33.415Z,978.15
2019-06-19T11:48:33.371Z,978.13
2019-06-19T11:49:33.375Z,978.13
2019-06-19T11:50:33.365Z,978.09
2019-06-19T11:51:33.346Z,978.09
2019-06-19T11:52:33.306Z,978.05
2019-06-19T11:53:33.374Z,978.03
2019-06-19T11:54:33.310Z,978.00
2019-06-19T11:55:33.309Z,977.96
2019-06-19T11:56:33.275Z,977.99
2019-06-19T11:57:33.213Z,977.92
2019-06-19T11:58:33.387Z,977.98
2019-06-19T11:59:33.167Z,977.93
2019-06-19T12:00:33.950Z,977.94
2019-06-19T12:01:33.136Z,977.94
2019-06-19T12:02:33.119Z,977.89
2019-06-19T12:03:33.105Z,977.88
2019-06-19T12:04:33.072Z,977.88
2019-06-19T12:05:33.064Z,977.85
2019-06-19T12:06:33.058Z,977.87
2019-06-19T12:07:33.014Z,977.92
2019-06-19T12:08:33.039Z,977.93
2019-06-19T12:09:33.016Z,977.94
2019-06-19T12:10:32.974Z,977.87
2019-06-19T12:11:32.954Z,977.84
2019-06-19T12:12:32.928Z,977.81
2019-06-19T12:13:32.939Z,977.84
2019-06-19T12:14:32.901Z,977.86
2019-06-19T12:15:32.880Z,977.85
2019-06-19T12:16:32.872Z,977.88
2019-06-19T12:17:32.838Z,977.86
2019-06-19T12:18:32.854Z,977.82
2019-06-19T12:19:32.852Z,977.84
2019-06-19T12:20:32.797Z,977.81
2019-06-19T12:21:32.806Z,977.78
2019-06-19T12:22:32.772Z,977.72
2019-06-19T12:23:32.762Z,977.72
2019-06-19T12:24:32.762Z,977.70
2019-06-19T12:25:32.697Z,977.71
2019-06-19T12:26:32.680Z,977.69
2019-06-19T12:27:32.669Z,977.70
2019-06-19T12:28:32.637Z,977.70